sensor_id;sensor_type;location;lat;lon;timestamp;P1;durP1;ratioP1;P2;durP2;ratioP2
50249;SDS011;36133;42.522;27.456;2023-05-16T00:00:55;28.20;;;21.80;;
50249;SDS011;36133;42.522;27.456;2023-05-16T00:03:22;35.90;;;22.50;;
50249;SDS011;36133;42.522;27.456;2023-05-16T00:05:48;26.17;;;20.95;;
50249;SDS011;36133;42.522;27.456;2023-05-16T00:08:14;27.48;;;20.85;;
50249;SDS011;36133;42.522;27.456;2023-05-16T00:10:40;30.67;;;20.60;;
50249;SDS011;36133;42.522;27.456;2023-05-16T00:13:06;28.75;;;20.13;;
50249;SDS011;36133;42.522;27.456;2023-05-16T00:15:31;23.48;;;17.77;;
50249;SDS011;36133;42.522;27.456;2023-05-16T00:17:57;26.77;;;20.15;;
50249;SDS011;36133;42.522;27.456;2023-05-16T00:20:24;28.02;;;18.65;;
50249;SDS011;36133;42.522;27.456;2023-05-16T00:22:50;27.75;;;17.20;;
50249;SDS011;36133;42.522;27.456;2023-05-16T00:25:16;31.25;;;18.60;;
50249;SDS011;36133;42.522;27.456;2023-05-16T00:27:42;26.83;;;18.77;;
50249;SDS011;36133;42.522;27.456;2023-05-16T00:30:07;26.75;;;18.73;;
50249;SDS011;36133;42.522;27.456;2023-05-16T00:32:34;29.90;;;18.60;;
50249;SDS011;36133;42.522;27.456;2023-05-16T00:35:00;27.75;;;18.80;;
50249;SDS011;36133;42.522;27.456;2023-05-16T00:37:26;29.15;;;19.95;;
50249;SDS011;36133;42.522;27.456;2023-05-16T00:39:52;28.27;;;18.65;;
50249;SDS011;36133;42.522;27.456;2023-05-16T00:42:18;25.55;;;18.67;;
50249;SDS011;36133;42.522;27.456;2023-05-16T00:44:45;28.65;;;19.00;;
50249;SDS011;36133;42.522;27.456;2023-05-16T00:47:11;29.50;;;20.17;;
50249;SDS011;36133;42.522;27.456;2023-05-16T00:49:37;22.00;;;17.65;;
50249;SDS011;36133;42.522;27.456;2023-05-16T00:52:03;24.40;;;17.90;;
50249;SDS011;36133;42.522;27.456;2023-05-16T00:54:29;31.45;;;17.92;;
50249;SDS011;36133;42.522;27.456;2023-05-16T00:56:55;26.67;;;17.83;;
50249;SDS011;36133;42.522;27.456;2023-05-16T00:59:22;24.70;;;18.10;;
50249;SDS011;36133;42.522;27.456;2023-05-16T01:01:48;33.97;;;17.95;;
50249;SDS011;36133;42.522;27.456;2023-05-16T01:04:16;22.92;;;15.65;;
50249;SDS011;36133;42.522;27.456;2023-05-16T01:06:42;23.10;;;17.20;;
50249;SDS011;36133;42.522;27.456;2023-05-16T01:09:08;23.25;;;16.98;;
50249;SDS011;36133;42.522;27.456;2023-05-16T01:11:45;22.08;;;17.80;;
50249;SDS011;36133;42.522;27.456;2023-05-16T01:19:54;25.02;;;17.35;;
50249;SDS011;36133;42.522;27.456;2023-05-16T01:22:28;27.08;;;16.88;;
50249;SDS011;36133;42.522;27.456;2023-05-16T01:27:57;28.92;;;18.23;;
50249;SDS011;36133;42.522;27.456;2023-05-16T01:30:23;25.48;;;18.63;;
50249;SDS011;36133;42.522;27.456;2023-05-16T01:32:49;26.25;;;17.98;;
50249;SDS011;36133;42.522;27.456;2023-05-16T01:35:15;25.15;;;17.40;;
50249;SDS011;36133;42.522;27.456;2023-05-16T01:37:47;27.73;;;16.95;;
50249;SDS011;36133;42.522;27.456;2023-05-16T01:40:32;23.70;;;17.67;;
50249;SDS011;36133;42.522;27.456;2023-05-16T01:43:20;30.10;;;18.23;;
50249;SDS011;36133;42.522;27.456;2023-05-16T01:46:15;30.83;;;18.90;;
50249;SDS011;36133;42.522;27.456;2023-05-16T01:51:44;27.73;;;19.08;;
50249;SDS011;36133;42.522;27.456;2023-05-16T01:54:20;30.60;;;18.58;;
50249;SDS011;36133;42.522;27.456;2023-05-16T01:56:51;27.38;;;17.23;;
50249;SDS011;36133;42.522;27.456;2023-05-16T01:59:20;25.70;;;16.70;;
50249;SDS011;36133;42.522;27.456;2023-05-16T02:01:47;25.00;;;17.23;;
50249;SDS011;36133;42.522;27.456;2023-05-16T02:04:13;20.60;;;15.00;;
50249;SDS011;36133;42.522;27.456;2023-05-16T02:06:40;27.95;;;15.35;;
50249;SDS011;36133;42.522;27.456;2023-05-16T02:09:06;27.60;;;15.23;;
50249;SDS011;36133;42.522;27.456;2023-05-16T02:11:32;20.88;;;15.10;;
50249;SDS011;36133;42.522;27.456;2023-05-16T02:13:58;23.05;;;16.35;;
50249;SDS011;36133;42.522;27.456;2023-05-16T02:16:23;28.65;;;17.33;;
50249;SDS011;36133;42.522;27.456;2023-05-16T02:18:49;24.52;;;16.20;;
50249;SDS011;36133;42.522;27.456;2023-05-16T02:21:14;23.30;;;14.30;;
50249;SDS011;36133;42.522;27.456;2023-05-16T02:23:40;20.63;;;14.63;;
50249;SDS011;36133;42.522;27.456;2023-05-16T02:26:05;23.90;;;14.57;;
50249;SDS011;36133;42.522;27.456;2023-05-16T02:28:31;23.35;;;14.32;;
50249;SDS011;36133;42.522;27.456;2023-05-16T02:31:00;24.83;;;16.13;;
50249;SDS011;36133;42.522;27.456;2023-05-16T02:33:25;24.13;;;16.55;;
50249;SDS011;36133;42.522;27.456;2023-05-16T02:35:52;22.38;;;16.73;;
50249;SDS011;36133;42.522;27.456;2023-05-16T02:38:18;28.75;;;18.58;;
50249;SDS011;36133;42.522;27.456;2023-05-16T02:40:48;28.30;;;21.30;;
50249;SDS011;36133;42.522;27.456;2023-05-16T02:43:14;31.88;;;19.70;;
50249;SDS011;36133;42.522;27.456;2023-05-16T02:45:39;26.35;;;18.55;;
50249;SDS011;36133;42.522;27.456;2023-05-16T02:48:05;32.88;;;19.35;;
50249;SDS011;36133;42.522;27.456;2023-05-16T02:50:31;30.70;;;19.85;;
50249;SDS011;36133;42.522;27.456;2023-05-16T02:52:58;32.00;;;20.83;;
50249;SDS011;36133;42.522;27.456;2023-05-16T02:55:26;28.70;;;18.00;;
50249;SDS011;36133;42.522;27.456;2023-05-16T02:57:54;32.08;;;19.50;;
50249;SDS011;36133;42.522;27.456;2023-05-16T03:00:20;25.92;;;18.23;;
50249;SDS011;36133;42.522;27.456;2023-05-16T03:02:46;28.85;;;16.65;;
50249;SDS011;36133;42.522;27.456;2023-05-16T03:05:11;25.05;;;16.38;;
50249;SDS011;36133;42.522;27.456;2023-05-16T03:07:37;36.65;;;16.20;;
50249;SDS011;36133;42.522;27.456;2023-05-16T03:10:03;23.98;;;14.80;;
50249;SDS011;36133;42.522;27.456;2023-05-16T03:12:29;27.10;;;15.02;;
50249;SDS011;36133;42.522;27.456;2023-05-16T03:14:55;20.65;;;15.75;;
50249;SDS011;36133;42.522;27.456;2023-05-16T03:17:20;25.98;;;15.65;;
50249;SDS011;36133;42.522;27.456;2023-05-16T03:19:46;27.73;;;15.82;;
50249;SDS011;36133;42.522;27.456;2023-05-16T03:22:12;29.02;;;15.23;;
50249;SDS011;36133;42.522;27.456;2023-05-16T03:24:37;23.02;;;14.65;;
50249;SDS011;36133;42.522;27.456;2023-05-16T03:27:03;23.02;;;15.20;;
50249;SDS011;36133;42.522;27.456;2023-05-16T03:29:29;25.30;;;15.90;;
50249;SDS011;36133;42.522;27.456;2023-05-16T03:31:55;20.85;;;15.00;;
50249;SDS011;36133;42.522;27.456;2023-05-16T03:34:21;27.38;;;15.57;;
50249;SDS011;36133;42.522;27.456;2023-05-16T03:36:49;26.45;;;14.68;;
50249;SDS011;36133;42.522;27.456;2023-05-16T03:39:15;22.70;;;15.80;;
50249;SDS011;36133;42.522;27.456;2023-05-16T03:41:41;24.60;;;14.55;;
50249;SDS011;36133;42.522;27.456;2023-05-16T03:44:07;26.13;;;13.45;;
50249;SDS011;36133;42.522;27.456;2023-05-16T03:46:33;22.85;;;13.77;;
50249;SDS011;36133;42.522;27.456;2023-05-16T03:48:59;21.85;;;14.18;;
50249;SDS011;36133;42.522;27.456;2023-05-16T03:51:25;22.48;;;14.40;;
50249;SDS011;36133;42.522;27.456;2023-05-16T03:53:50;26.83;;;14.25;;
50249;SDS011;36133;42.522;27.456;2023-05-16T03:56:16;27.88;;;13.75;;
50249;SDS011;36133;42.522;27.456;2023-05-16T03:58:41;21.48;;;12.95;;
50249;SDS011;36133;42.522;27.456;2023-05-16T04:01:07;35.83;;;13.70;;
50249;SDS011;36133;42.522;27.456;2023-05-16T04:03:32;25.35;;;14.43;;
50249;SDS011;36133;42.522;27.456;2023-05-16T04:05:58;23.23;;;13.48;;
50249;SDS011;36133;42.522;27.456;2023-05-16T04:08:24;23.58;;;12.85;;
50249;SDS011;36133;42.522;27.456;2023-05-16T04:10:50;22.20;;;12.00;;
50249;SDS011;36133;42.522;27.456;2023-05-16T04:13:15;19.65;;;11.02;;
50249;SDS011;36133;42.522;27.456;2023-05-16T04:15:41;27.40;;;12.40;;
50249;SDS011;36133;42.522;27.456;2023-05-16T04:18:07;18.55;;;10.52;;
50249;SDS011;36133;42.522;27.456;2023-05-16T04:20:33;27.17;;;11.63;;
50249;SDS011;36133;42.522;27.456;2023-05-16T04:22:59;20.23;;;10.45;;
50249;SDS011;36133;42.522;27.456;2023-05-16T04:25:25;19.90;;;10.32;;
50249;SDS011;36133;42.522;27.456;2023-05-16T04:27:50;16.85;;;10.55;;
50249;SDS011;36133;42.522;27.456;2023-05-16T04:30:16;15.23;;;9.43;;
50249;SDS011;36133;42.522;27.456;2023-05-16T04:32:42;20.02;;;10.32;;
50249;SDS011;36133;42.522;27.456;2023-05-16T04:35:08;19.23;;;9.48;;
50249;SDS011;36133;42.522;27.456;2023-05-16T04:37:33;12.07;;;8.98;;
50249;SDS011;36133;42.522;27.456;2023-05-16T04:40:00;19.70;;;9.98;;
50249;SDS011;36133;42.522;27.456;2023-05-16T04:42:25;15.32;;;9.35;;
50249;SDS011;36133;42.522;27.456;2023-05-16T04:44:51;15.18;;;9.63;;
50249;SDS011;36133;42.522;27.456;2023-05-16T04:47:17;13.65;;;9.00;;
50249;SDS011;36133;42.522;27.456;2023-05-16T04:49:42;13.82;;;9.52;;
50249;SDS011;36133;42.522;27.456;2023-05-16T04:52:08;15.90;;;9.43;;
50249;SDS011;36133;42.522;27.456;2023-05-16T04:54:36;18.63;;;9.15;;
50249;SDS011;36133;42.522;27.456;2023-05-16T04:57:03;19.15;;;9.50;;
50249;SDS011;36133;42.522;27.456;2023-05-16T04:59:28;18.38;;;9.43;;
50249;SDS011;36133;42.522;27.456;2023-05-16T05:01:54;18.85;;;9.98;;
50249;SDS011;36133;42.522;27.456;2023-05-16T05:04:19;17.20;;;9.68;;
50249;SDS011;36133;42.522;27.456;2023-05-16T05:06:46;17.20;;;9.13;;
50249;SDS011;36133;42.522;27.456;2023-05-16T05:09:11;17.00;;;9.98;;
50249;SDS011;36133;42.522;27.456;2023-05-16T05:11:37;18.98;;;9.55;;
50249;SDS011;36133;42.522;27.456;2023-05-16T05:14:02;20.83;;;10.65;;
50249;SDS011;36133;42.522;27.456;2023-05-16T05:16:28;13.65;;;8.77;;
50249;SDS011;36133;42.522;27.456;2023-05-16T05:18:54;15.38;;;10.05;;
50249;SDS011;36133;42.522;27.456;2023-05-16T05:21:19;19.23;;;9.95;;
50249;SDS011;36133;42.522;27.456;2023-05-16T05:23:49;20.00;;;11.10;;
50249;SDS011;36133;42.522;27.456;2023-05-16T05:26:14;18.40;;;10.38;;
50249;SDS011;36133;42.522;27.456;2023-05-16T05:28:40;20.63;;;10.82;;
50249;SDS011;36133;42.522;27.456;2023-05-16T05:31:06;16.27;;;10.40;;
50249;SDS011;36133;42.522;27.456;2023-05-16T05:33:32;23.73;;;11.43;;
50249;SDS011;36133;42.522;27.456;2023-05-16T05:35:57;15.50;;;10.80;;
50249;SDS011;36133;42.522;27.456;2023-05-16T05:38:23;17.73;;;10.55;;
50249;SDS011;36133;42.522;27.456;2023-05-16T05:40:49;19.02;;;10.10;;
50249;SDS011;36133;42.522;27.456;2023-05-16T05:43:15;21.67;;;9.93;;
50249;SDS011;36133;42.522;27.456;2023-05-16T05:45:40;18.50;;;8.93;;
50249;SDS011;36133;42.522;27.456;2023-05-16T05:48:06;14.02;;;7.95;;
50249;SDS011;36133;42.522;27.456;2023-05-16T05:50:32;14.07;;;8.65;;
50249;SDS011;36133;42.522;27.456;2023-05-16T05:52:58;15.07;;;8.38;;
50249;SDS011;36133;42.522;27.456;2023-05-16T05:55:23;19.83;;;9.48;;
50249;SDS011;36133;42.522;27.456;2023-05-16T05:57:49;16.23;;;8.43;;
50249;SDS011;36133;42.522;27.456;2023-05-16T06:00:15;15.65;;;9.00;;
50249;SDS011;36133;42.522;27.456;2023-05-16T06:02:41;17.30;;;9.20;;
50249;SDS011;36133;42.522;27.456;2023-05-16T06:05:06;17.63;;;10.63;;
50249;SDS011;36133;42.522;27.456;2023-05-16T06:07:32;14.35;;;9.05;;
50249;SDS011;36133;42.522;27.456;2023-05-16T06:09:58;15.93;;;7.75;;
50249;SDS011;36133;42.522;27.456;2023-05-16T06:12:28;18.30;;;9.05;;
50249;SDS011;36133;42.522;27.456;2023-05-16T06:14:53;15.73;;;8.57;;
50249;SDS011;36133;42.522;27.456;2023-05-16T06:17:19;18.33;;;8.48;;
50249;SDS011;36133;42.522;27.456;2023-05-16T06:19:45;15.15;;;8.25;;
50249;SDS011;36133;42.522;27.456;2023-05-16T06:22:11;13.00;;;7.63;;
50249;SDS011;36133;42.522;27.456;2023-05-16T06:24:36;17.65;;;8.63;;
50249;SDS011;36133;42.522;27.456;2023-05-16T06:27:02;17.27;;;8.60;;
50249;SDS011;36133;42.522;27.456;2023-05-16T06:29:27;12.55;;;7.97;;
50249;SDS011;36133;42.522;27.456;2023-05-16T06:31:53;15.73;;;7.95;;
50249;SDS011;36133;42.522;27.456;2023-05-16T06:34:18;15.30;;;7.68;;
50249;SDS011;36133;42.522;27.456;2023-05-16T06:36:47;12.90;;;7.25;;
50249;SDS011;36133;42.522;27.456;2023-05-16T06:39:13;15.48;;;7.72;;
50249;SDS011;36133;42.522;27.456;2023-05-16T06:41:39;14.13;;;7.45;;
50249;SDS011;36133;42.522;27.456;2023-05-16T06:44:04;18.90;;;8.65;;
50249;SDS011;36133;42.522;27.456;2023-05-16T06:46:30;17.15;;;8.50;;
50249;SDS011;36133;42.522;27.456;2023-05-16T06:48:57;25.88;;;8.77;;
50249;SDS011;36133;42.522;27.456;2023-05-16T06:51:23;31.17;;;9.57;;
50249;SDS011;36133;42.522;27.456;2023-05-16T06:53:48;18.63;;;8.63;;
50249;SDS011;36133;42.522;27.456;2023-05-16T06:56:17;20.45;;;9.02;;
50249;SDS011;36133;42.522;27.456;2023-05-16T06:58:42;15.82;;;8.27;;
50249;SDS011;36133;42.522;27.456;2023-05-16T07:01:08;19.95;;;8.02;;
50249;SDS011;36133;42.522;27.456;2023-05-16T07:03:33;16.90;;;7.65;;
50249;SDS011;36133;42.522;27.456;2023-05-16T07:06:04;16.60;;;7.85;;
50249;SDS011;36133;42.522;27.456;2023-05-16T07:08:30;14.57;;;8.23;;
50249;SDS011;36133;42.522;27.456;2023-05-16T07:10:55;17.70;;;7.72;;
50249;SDS011;36133;42.522;27.456;2023-05-16T07:13:21;13.43;;;7.63;;
50249;SDS011;36133;42.522;27.456;2023-05-16T07:15:46;14.02;;;7.05;;
50249;SDS011;36133;42.522;27.456;2023-05-16T07:18:12;12.20;;;7.32;;
50249;SDS011;36133;42.522;27.456;2023-05-16T07:20:38;16.27;;;7.13;;
50249;SDS011;36133;42.522;27.456;2023-05-16T07:23:03;15.98;;;7.70;;
50249;SDS011;36133;42.522;27.456;2023-05-16T07:25:30;12.13;;;7.07;;
50249;SDS011;36133;42.522;27.456;2023-05-16T07:27:56;13.65;;;6.45;;
50249;SDS011;36133;42.522;27.456;2023-05-16T07:30:21;13.05;;;7.20;;
50249;SDS011;36133;42.522;27.456;2023-05-16T07:32:47;16.45;;;8.23;;
50249;SDS011;36133;42.522;27.456;2023-05-16T07:35:13;14.40;;;7.80;;
50249;SDS011;36133;42.522;27.456;2023-05-16T07:37:39;14.95;;;8.30;;
50249;SDS011;36133;42.522;27.456;2023-05-16T07:40:08;15.82;;;8.80;;
50249;SDS011;36133;42.522;27.456;2023-05-16T07:42:35;13.88;;;9.07;;
50249;SDS011;36133;42.522;27.456;2023-05-16T07:45:00;14.95;;;8.93;;
50249;SDS011;36133;42.522;27.456;2023-05-16T07:47:26;17.58;;;10.30;;
50249;SDS011;36133;42.522;27.456;2023-05-16T07:49:54;19.65;;;9.63;;
50249;SDS011;36133;42.522;27.456;2023-05-16T07:52:20;16.90;;;8.60;;
50249;SDS011;36133;42.522;27.456;2023-05-16T07:54:46;19.65;;;9.07;;
50249;SDS011;36133;42.522;27.456;2023-05-16T07:57:14;17.20;;;9.07;;
50249;SDS011;36133;42.522;27.456;2023-05-16T07:59:40;14.52;;;8.57;;
50249;SDS011;36133;42.522;27.456;2023-05-16T08:02:06;12.90;;;8.88;;
50249;SDS011;36133;42.522;27.456;2023-05-16T08:04:32;16.83;;;9.23;;
50249;SDS011;36133;42.522;27.456;2023-05-16T08:06:58;13.00;;;8.52;;
50249;SDS011;36133;42.522;27.456;2023-05-16T08:09:23;17.88;;;8.80;;
50249;SDS011;36133;42.522;27.456;2023-05-16T08:11:49;17.88;;;8.35;;
50249;SDS011;36133;42.522;27.456;2023-05-16T08:14:15;15.60;;;8.90;;
50249;SDS011;36133;42.522;27.456;2023-05-16T08:16:40;13.77;;;8.35;;
50249;SDS011;36133;42.522;27.456;2023-05-16T08:19:06;13.75;;;7.45;;
50249;SDS011;36133;42.522;27.456;2023-05-16T08:21:32;11.02;;;6.60;;
50249;SDS011;36133;42.522;27.456;2023-05-16T08:23:57;16.55;;;7.10;;
50249;SDS011;36133;42.522;27.456;2023-05-16T08:26:23;16.48;;;7.40;;
50249;SDS011;36133;42.522;27.456;2023-05-16T08:28:49;18.15;;;7.45;;
50249;SDS011;36133;42.522;27.456;2023-05-16T08:31:28;16.77;;;7.97;;
50249;SDS011;36133;42.522;27.456;2023-05-16T08:33:55;16.27;;;7.80;;
50249;SDS011;36133;42.522;27.456;2023-05-16T08:36:21;12.82;;;7.28;;
50249;SDS011;36133;42.522;27.456;2023-05-16T08:38:48;17.55;;;7.68;;
50249;SDS011;36133;42.522;27.456;2023-05-16T08:41:18;13.00;;;6.45;;
50249;SDS011;36133;42.522;27.456;2023-05-16T08:43:46;14.35;;;7.47;;
50249;SDS011;36133;42.522;27.456;2023-05-16T08:46:12;13.57;;;7.15;;
50249;SDS011;36133;42.522;27.456;2023-05-16T08:48:38;18.02;;;7.60;;
50249;SDS011;36133;42.522;27.456;2023-05-16T08:51:08;17.15;;;7.43;;
50249;SDS011;36133;42.522;27.456;2023-05-16T08:53:38;13.18;;;7.35;;
50249;SDS011;36133;42.522;27.456;2023-05-16T08:56:09;14.15;;;7.60;;
50249;SDS011;36133;42.522;27.456;2023-05-16T08:58:35;15.70;;;6.88;;
50249;SDS011;36133;42.522;27.456;2023-05-16T09:01:01;13.90;;;6.97;;
50249;SDS011;36133;42.522;27.456;2023-05-16T09:03:31;11.52;;;7.05;;
50249;SDS011;36133;42.522;27.456;2023-05-16T09:05:57;15.95;;;6.68;;
50249;SDS011;36133;42.522;27.456;2023-05-16T09:08:23;15.10;;;7.13;;
50249;SDS011;36133;42.522;27.456;2023-05-16T09:10:49;13.80;;;6.90;;
50249;SDS011;36133;42.522;27.456;2023-05-16T09:13:14;17.30;;;6.85;;
50249;SDS011;36133;42.522;27.456;2023-05-16T09:15:40;13.35;;;6.85;;
50249;SDS011;36133;42.522;27.456;2023-05-16T09:18:10;14.13;;;6.57;;
50249;SDS011;36133;42.522;27.456;2023-05-16T09:20:42;14.85;;;7.00;;
50249;SDS011;36133;42.522;27.456;2023-05-16T09:23:11;13.50;;;6.53;;
50249;SDS011;36133;42.522;27.456;2023-05-16T09:25:44;14.00;;;7.25;;
50249;SDS011;36133;42.522;27.456;2023-05-16T09:28:09;16.13;;;6.60;;
50249;SDS011;36133;42.522;27.456;2023-05-16T09:30:38;18.88;;;7.25;;
50249;SDS011;36133;42.522;27.456;2023-05-16T09:33:06;17.58;;;7.43;;
50249;SDS011;36133;42.522;27.456;2023-05-16T09:35:32;15.35;;;7.13;;
50249;SDS011;36133;42.522;27.456;2023-05-16T09:37:57;11.48;;;6.13;;
50249;SDS011;36133;42.522;27.456;2023-05-16T09:40:23;14.05;;;6.65;;
50249;SDS011;36133;42.522;27.456;2023-05-16T09:43:02;14.50;;;6.00;;
50249;SDS011;36133;42.522;27.456;2023-05-16T09:45:32;12.43;;;5.80;;
50249;SDS011;36133;42.522;27.456;2023-05-16T09:48:05;14.55;;;6.55;;
50249;SDS011;36133;42.522;27.456;2023-05-16T09:50:32;16.13;;;6.20;;
50249;SDS011;36133;42.522;27.456;2023-05-16T09:52:58;13.25;;;6.35;;
50249;SDS011;36133;42.522;27.456;2023-05-16T09:55:25;14.02;;;6.45;;
50249;SDS011;36133;42.522;27.456;2023-05-16T09:57:50;14.73;;;6.28;;
50249;SDS011;36133;42.522;27.456;2023-05-16T10:00:16;16.75;;;6.88;;
50249;SDS011;36133;42.522;27.456;2023-05-16T10:02:42;12.52;;;7.10;;
50249;SDS011;36133;42.522;27.456;2023-05-16T10:05:08;12.85;;;6.18;;
50249;SDS011;36133;42.522;27.456;2023-05-16T10:07:34;13.52;;;6.90;;
50249;SDS011;36133;42.522;27.456;2023-05-16T10:10:05;12.23;;;6.20;;
50249;SDS011;36133;42.522;27.456;2023-05-16T10:12:32;22.60;;;6.93;;
50249;SDS011;36133;42.522;27.456;2023-05-16T10:14:59;15.07;;;6.50;;
50249;SDS011;36133;42.522;27.456;2023-05-16T10:17:27;13.65;;;6.43;;
50249;SDS011;36133;42.522;27.456;2023-05-16T10:19:56;15.88;;;6.47;;
50249;SDS011;36133;42.522;27.456;2023-05-16T10:22:22;12.60;;;6.18;;
50249;SDS011;36133;42.522;27.456;2023-05-16T10:24:55;14.90;;;6.43;;
50249;SDS011;36133;42.522;27.456;2023-05-16T10:27:33;11.77;;;5.70;;
50249;SDS011;36133;42.522;27.456;2023-05-16T10:30:00;11.63;;;6.32;;
50249;SDS011;36133;42.522;27.456;2023-05-16T10:32:26;14.50;;;6.05;;
50249;SDS011;36133;42.522;27.456;2023-05-16T10:34:53;14.63;;;6.82;;
50249;SDS011;36133;42.522;27.456;2023-05-16T10:37:20;12.02;;;6.03;;
50249;SDS011;36133;42.522;27.456;2023-05-16T10:39:47;13.18;;;6.13;;
50249;SDS011;36133;42.522;27.456;2023-05-16T10:42:13;14.75;;;6.28;;
50249;SDS011;36133;42.522;27.456;2023-05-16T10:44:42;12.35;;;5.95;;
50249;SDS011;36133;42.522;27.456;2023-05-16T10:47:09;17.80;;;6.07;;
50249;SDS011;36133;42.522;27.456;2023-05-16T10:49:36;15.15;;;6.10;;
50249;SDS011;36133;42.522;27.456;2023-05-16T10:52:11;12.43;;;5.70;;
50249;SDS011;36133;42.522;27.456;2023-05-16T10:54:43;13.43;;;5.50;;
50249;SDS011;36133;42.522;27.456;2023-05-16T10:57:16;17.55;;;6.97;;
50249;SDS011;36133;42.522;27.456;2023-05-16T10:59:47;12.63;;;6.10;;
50249;SDS011;36133;42.522;27.456;2023-05-16T11:02:30;16.80;;;6.70;;
50249;SDS011;36133;42.522;27.456;2023-05-16T11:05:00;10.70;;;5.55;;
50249;SDS011;36133;42.522;27.456;2023-05-16T11:07:32;10.00;;;5.53;;
50249;SDS011;36133;42.522;27.456;2023-05-16T11:10:08;15.00;;;5.82;;
50249;SDS011;36133;42.522;27.456;2023-05-16T11:12:43;14.65;;;6.28;;
50249;SDS011;36133;42.522;27.456;2023-05-16T11:17:47;10.25;;;5.20;;
50249;SDS011;36133;42.522;27.456;2023-05-16T11:20:28;12.35;;;5.88;;
50249;SDS011;36133;42.522;27.456;2023-05-16T11:25:51;24.55;;;6.15;;
50249;SDS011;36133;42.522;27.456;2023-05-16T11:28:20;16.85;;;5.97;;
50249;SDS011;36133;42.522;27.456;2023-05-16T11:30:49;9.82;;;5.53;;
50249;SDS011;36133;42.522;27.456;2023-05-16T11:33:21;17.20;;;5.85;;
50249;SDS011;36133;42.522;27.456;2023-05-16T11:36:06;13.30;;;6.07;;
50249;SDS011;36133;42.522;27.456;2023-05-16T11:38:33;11.50;;;5.85;;
50249;SDS011;36133;42.522;27.456;2023-05-16T11:41:03;16.10;;;5.97;;
50249;SDS011;36133;42.522;27.456;2023-05-16T11:43:36;14.95;;;7.00;;
50249;SDS011;36133;42.522;27.456;2023-05-16T11:46:12;22.38;;;8.18;;
50249;SDS011;36133;42.522;27.456;2023-05-16T11:48:38;20.80;;;7.40;;
50249;SDS011;36133;42.522;27.456;2023-05-16T11:51:05;18.08;;;6.60;;
50249;SDS011;36133;42.522;27.456;2023-05-16T11:53:32;16.20;;;6.68;;
50249;SDS011;36133;42.522;27.456;2023-05-16T11:55:58;15.68;;;5.45;;
50249;SDS011;36133;42.522;27.456;2023-05-16T11:58:26;13.02;;;6.25;;
50249;SDS011;36133;42.522;27.456;2023-05-16T12:00:52;17.90;;;7.65;;
50249;SDS011;36133;42.522;27.456;2023-05-16T12:03:18;27.15;;;7.90;;
50249;SDS011;36133;42.522;27.456;2023-05-16T12:05:51;20.23;;;7.18;;
50249;SDS011;36133;42.522;27.456;2023-05-16T12:08:18;13.98;;;6.38;;
50249;SDS011;36133;42.522;27.456;2023-05-16T12:10:46;13.60;;;5.75;;
50249;SDS011;36133;42.522;27.456;2023-05-16T12:13:13;17.10;;;6.53;;
50249;SDS011;36133;42.522;27.456;2023-05-16T12:15:40;15.50;;;6.55;;
50249;SDS011;36133;42.522;27.456;2023-05-16T12:18:06;12.38;;;6.30;;
50249;SDS011;36133;42.522;27.456;2023-05-16T12:20:32;19.23;;;6.78;;
50249;SDS011;36133;42.522;27.456;2023-05-16T12:22:58;17.15;;;7.05;;
50249;SDS011;36133;42.522;27.456;2023-05-16T12:25:27;21.00;;;7.60;;
50249;SDS011;36133;42.522;27.456;2023-05-16T12:27:53;17.42;;;6.97;;
50249;SDS011;36133;42.522;27.456;2023-05-16T12:30:21;14.65;;;6.88;;
50249;SDS011;36133;42.522;27.456;2023-05-16T12:32:52;15.45;;;6.18;;
50249;SDS011;36133;42.522;27.456;2023-05-16T12:35:24;14.20;;;6.05;;
50249;SDS011;36133;42.522;27.456;2023-05-16T12:37:54;12.10;;;6.10;;
50249;SDS011;36133;42.522;27.456;2023-05-16T12:40:20;11.63;;;5.80;;
50249;SDS011;36133;42.522;27.456;2023-05-16T12:42:50;14.23;;;6.43;;
50249;SDS011;36133;42.522;27.456;2023-05-16T12:45:17;14.05;;;6.03;;
50249;SDS011;36133;42.522;27.456;2023-05-16T12:47:43;16.40;;;6.40;;
50249;SDS011;36133;42.522;27.456;2023-05-16T12:50:09;16.48;;;6.32;;
50249;SDS011;36133;42.522;27.456;2023-05-16T12:52:44;11.13;;;5.90;;
50249;SDS011;36133;42.522;27.456;2023-05-16T12:55:11;13.85;;;6.07;;
50249;SDS011;36133;42.522;27.456;2023-05-16T12:57:37;25.50;;;7.57;;
50249;SDS011;36133;42.522;27.456;2023-05-16T13:00:07;12.18;;;6.30;;
50249;SDS011;36133;42.522;27.456;2023-05-16T13:02:34;12.52;;;6.03;;
50249;SDS011;36133;42.522;27.456;2023-05-16T13:05:00;15.75;;;6.35;;
50249;SDS011;36133;42.522;27.456;2023-05-16T13:07:26;17.77;;;6.25;;
50249;SDS011;36133;42.522;27.456;2023-05-16T13:09:51;16.25;;;6.90;;
50249;SDS011;36133;42.522;27.456;2023-05-16T13:12:17;16.98;;;6.25;;
50249;SDS011;36133;42.522;27.456;2023-05-16T13:14:42;15.65;;;6.50;;
50249;SDS011;36133;42.522;27.456;2023-05-16T13:17:09;15.77;;;6.30;;
50249;SDS011;36133;42.522;27.456;2023-05-16T13:19:35;14.80;;;6.13;;
50249;SDS011;36133;42.522;27.456;2023-05-16T13:22:06;15.95;;;6.32;;
50249;SDS011;36133;42.522;27.456;2023-05-16T13:24:32;14.90;;;6.43;;
50249;SDS011;36133;42.522;27.456;2023-05-16T13:26:58;15.10;;;6.00;;
50249;SDS011;36133;42.522;27.456;2023-05-16T13:29:24;19.27;;;7.03;;
50249;SDS011;36133;42.522;27.456;2023-05-16T13:31:49;14.73;;;6.03;;
50249;SDS011;36133;42.522;27.456;2023-05-16T13:34:15;16.88;;;6.22;;
50249;SDS011;36133;42.522;27.456;2023-05-16T13:36:41;16.70;;;6.18;;
50249;SDS011;36133;42.522;27.456;2023-05-16T13:39:06;13.88;;;6.65;;
50249;SDS011;36133;42.522;27.456;2023-05-16T13:41:32;15.70;;;6.50;;
50249;SDS011;36133;42.522;27.456;2023-05-16T13:44:01;16.25;;;5.85;;
50249;SDS011;36133;42.522;27.456;2023-05-16T13:46:27;16.40;;;6.78;;
50249;SDS011;36133;42.522;27.456;2023-05-16T13:48:53;15.68;;;7.07;;
50249;SDS011;36133;42.522;27.456;2023-05-16T13:51:18;13.77;;;6.32;;
50249;SDS011;36133;42.522;27.456;2023-05-16T13:53:44;14.02;;;6.40;;
50249;SDS011;36133;42.522;27.456;2023-05-16T13:56:10;12.98;;;6.00;;
50249;SDS011;36133;42.522;27.456;2023-05-16T13:58:35;15.73;;;6.97;;
50249;SDS011;36133;42.522;27.456;2023-05-16T14:01:01;14.48;;;6.50;;
50249;SDS011;36133;42.522;27.456;2023-05-16T14:03:27;14.30;;;6.65;;
50249;SDS011;36133;42.522;27.456;2023-05-16T14:05:53;14.20;;;6.85;;
50249;SDS011;36133;42.522;27.456;2023-05-16T14:08:18;17.27;;;7.45;;
50249;SDS011;36133;42.522;27.456;2023-05-16T14:10:44;14.85;;;6.72;;
50249;SDS011;36133;42.522;27.456;2023-05-16T14:13:09;18.08;;;6.82;;
50249;SDS011;36133;42.522;27.456;2023-05-16T14:15:35;20.42;;;7.35;;
50249;SDS011;36133;42.522;27.456;2023-05-16T14:18:04;21.48;;;7.80;;
50249;SDS011;36133;42.522;27.456;2023-05-16T14:20:30;20.42;;;6.43;;
50249;SDS011;36133;42.522;27.456;2023-05-16T14:22:55;17.48;;;7.03;;
50249;SDS011;36133;42.522;27.456;2023-05-16T14:25:21;21.58;;;6.40;;
50249;SDS011;36133;42.522;27.456;2023-05-16T14:27:47;17.67;;;6.22;;
50249;SDS011;36133;42.522;27.456;2023-05-16T14:33:15;14.68;;;6.40;;
50249;SDS011;36133;42.522;27.456;2023-05-16T14:35:43;15.80;;;6.78;;
50249;SDS011;36133;42.522;27.456;2023-05-16T14:38:09;17.85;;;7.28;;